sensor_id;sensor_type;location;lat;lon;timestamp;pressure;altitude;pressure_sealevel;temperature;humidity
56912;BME280;42800;53.928;27.662;2023-04-06T00:00:43;99525.25;;;3.15;100.00
56912;BME280;42800;53.928;27.662;2023-04-06T00:03:10;99511.94;;;3.04;100.00
56912;BME280;42800;53.928;27.662;2023-04-06T00:05:36;99498.41;;;3.27;100.00
56912;BME280;42800;53.928;27.662;2023-04-06T00:08:02;99491.94;;;3.37;100.00
56912;BME280;42800;53.928;27.662;2023-04-06T00:10:28;99502.81;;;3.23;100.00
56912;BME280;42800;53.928;27.662;2023-04-06T00:12:55;99498.03;;;3.20;100.00
56912;BME280;42800;53.928;27.662;2023-04-06T00:15:21;99488.03;;;3.51;100.00
56912;BME280;42800;53.928;27.662;2023-04-06T00:17:47;99501.50;;;3.65;100.00
56912;BME280;42800;53.928;27.662;2023-04-06T00:20:13;99520.75;;;3.33;100.00
56912;BME280;42800;53.928;27.662;2023-04-06T00:22:40;99519.16;;;3.32;100.00
56912;BME280;42800;53.928;27.662;2023-04-06T00:25:07;99513.63;;;3.37;100.00
56912;BME280;42800;53.928;27.662;2023-04-06T00:27:34;99501.94;;;3.27;100.00
56912;BME280;42800;53.928;27.662;2023-04-06T00:30:00;99497.91;;;3.25;100.00
56912;BME280;42800;53.928;27.662;2023-04-06T00:32:26;99494.53;;;3.42;100.00
56912;BME280;42800;53.928;27.662;2023-04-06T00:34:51;99498.53;;;3.44;100.00
56912;BME280;42800;53.928;27.662;2023-04-06T00:37:17;99504.84;;;3.40;100.00
56912;BME280;42800;53.928;27.662;2023-04-06T00:39:45;99498.22;;;3.46;100.00
56912;BME280;42800;53.928;27.662;2023-04-06T00:42:12;99509.66;;;3.65;100.00
56912;BME280;42800;53.928;27.662;2023-04-06T00:44:38;99527.47;;;3.58;100.00
56912;BME280;42800;53.928;27.662;2023-04-06T00:47:04;99522.13;;;3.44;100.00
56912;BME280;42800;53.928;27.662;2023-04-06T00:49:32;99523.34;;;3.38;100.00
56912;BME280;42800;53.928;27.662;2023-04-06T00:51:57;99491.94;;;3.37;100.00
56912;BME280;42800;53.928;27.662;2023-04-06T00:54:23;99479.38;;;3.18;100.00
56912;BME280;42800;53.928;27.662;2023-04-06T00:56:51;99470.28;;;3.14;100.00
56912;BME280;42800;53.928;27.662;2023-04-06T00:59:17;99443.78;;;3.34;100.00
56912;BME280;42800;53.928;27.662;2023-04-06T01:01:43;99428.09;;;3.22;100.00
56912;BME280;42800;53.928;27.662;2023-04-06T01:04:09;99427.16;;;3.26;100.00
56912;BME280;42800;53.928;27.662;2023-04-06T01:06:35;99398.81;;;3.33;100.00
56912;BME280;42800;53.928;27.662;2023-04-06T01:09:01;99396.81;;;3.16;100.00
56912;BME280;42800;53.928;27.662;2023-04-06T01:11:27;99378.38;;;3.58;100.00
56912;BME280;42800;53.928;27.662;2023-04-06T01:13:53;99377.22;;;3.50;100.00
56912;BME280;42800;53.928;27.662;2023-04-06T01:16:20;99382.03;;;3.22;100.00
56912;BME280;42800;53.928;27.662;2023-04-06T01:18:46;99362.13;;;3.26;100.00
56912;BME280;42800;53.928;27.662;2023-04-06T01:21:12;99363.34;;;3.51;100.00
56912;BME280;42800;53.928;27.662;2023-04-06T01:23:43;99353.69;;;3.28;100.00
56912;BME280;42800;53.928;27.662;2023-04-06T01:26:09;99359.09;;;3.28;100.00
56912;BME280;42800;53.928;27.662;2023-04-06T01:28:35;99345.13;;;3.35;100.00
56912;BME280;42800;53.928;27.662;2023-04-06T01:31:02;99344.06;;;3.53;100.00
56912;BME280;42800;53.928;27.662;2023-04-06T01:33:28;99332.06;;;3.45;100.00
56912;BME280;42800;53.928;27.662;2023-04-06T01:35:54;99334.34;;;3.52;100.00
56912;BME280;42800;53.928;27.662;2023-04-06T01:38:21;99325.56;;;3.55;100.00
56912;BME280;42800;53.928;27.662;2023-04-06T01:40:47;99340.03;;;3.42;100.00
56912;BME280;42800;53.928;27.662;2023-04-06T01:43:13;99335.34;;;3.25;100.00
56912;BME280;42800;53.928;27.662;2023-04-06T01:45:40;99312.34;;;3.53;100.00
56912;BME280;42800;53.928;27.662;2023-04-06T01:48:07;99321.41;;;3.49;100.00
56912;BME280;42800;53.928;27.662;2023-04-06T01:50:33;99326.88;;;3.58;100.00
56912;BME280;42800;53.928;27.662;2023-04-06T01:52:59;99328.56;;;3.45;100.00
56912;BME280;42800;53.928;27.662;2023-04-06T01:55:25;99318.91;;;3.61;100.00
56912;BME280;42800;53.928;27.662;2023-04-06T01:57:52;99325.06;;;3.53;100.00
56912;BME280;42800;53.928;27.662;2023-04-06T02:00:18;99320.78;;;3.43;100.00
56912;BME280;42800;53.928;27.662;2023-04-06T02:02:44;99324.22;;;3.35;100.00
56912;BME280;42800;53.928;27.662;2023-04-06T02:05:10;99315.22;;;3.66;100.00
56912;BME280;42800;53.928;27.662;2023-04-06T02:07:36;99318.34;;;3.42;100.00
56912;BME280;42800;53.928;27.662;2023-04-06T02:10:02;99300.69;;;3.44;100.00
56912;BME280;42800;53.928;27.662;2023-04-06T02:12:28;99309.66;;;3.22;100.00
56912;BME280;42800;53.928;27.662;2023-04-06T02:14:55;99295.72;;;3.46;100.00
56912;BME280;42800;53.928;27.662;2023-04-06T02:17:21;99297.47;;;3.42;100.00
56912;BME280;42800;53.928;27.662;2023-04-06T02:19:47;99295.13;;;3.58;100.00
56912;BME280;42800;53.928;27.662;2023-04-06T02:22:13;99298.88;;;3.40;100.00
56912;BME280;42800;53.928;27.662;2023-04-06T02:24:39;99296.75;;;3.68;100.00
56912;BME280;42800;53.928;27.662;2023-04-06T02:27:05;99309.00;;;3.57;100.00
56912;BME280;42800;53.928;27.662;2023-04-06T02:29:31;99308.09;;;3.70;100.00
56912;BME280;42800;53.928;27.662;2023-04-06T02:31:58;99314.09;;;3.58;100.00
56912;BME280;42800;53.928;27.662;2023-04-06T02:34:24;99318.72;;;3.58;100.00
56912;BME280;42800;53.928;27.662;2023-04-06T02:36:50;99324.94;;;3.58;100.00
56912;BME280;42800;53.928;27.662;2023-04-06T02:39:16;99325.16;;;3.70;100.00
56912;BME280;42800;53.928;27.662;2023-04-06T02:41:43;99315.41;;;3.69;100.00
56912;BME280;42800;53.928;27.662;2023-04-06T02:44:09;99321.44;;;3.58;100.00
56912;BME280;42800;53.928;27.662;2023-04-06T02:46:35;99318.00;;;3.35;100.00
56912;BME280;42800;53.928;27.662;2023-04-06T02:49:01;99306.72;;;3.41;100.00
56912;BME280;42800;53.928;27.662;2023-04-06T02:51:27;99302.31;;;3.63;100.00
56912;BME280;42800;53.928;27.662;2023-04-06T02:53:53;99303.75;;;3.69;100.00
56912;BME280;42800;53.928;27.662;2023-04-06T02:56:19;99311.75;;;3.74;100.00
56912;BME280;42800;53.928;27.662;2023-04-06T02:58:46;99309.69;;;3.71;100.00
56912;BME280;42800;53.928;27.662;2023-04-06T03:01:12;99308.56;;;3.63;100.00
56912;BME280;42800;53.928;27.662;2023-04-06T03:03:38;99318.13;;;3.69;100.00
56912;BME280;42800;53.928;27.662;2023-04-06T03:06:05;99308.22;;;3.65;100.00
56912;BME280;42800;53.928;27.662;2023-04-06T03:08:31;99310.13;;;3.64;100.00
56912;BME280;42800;53.928;27.662;2023-04-06T03:10:57;99318.16;;;3.78;100.00
56912;BME280;42800;53.928;27.662;2023-04-06T03:13:23;99298.97;;;3.57;100.00
56912;BME280;42800;53.928;27.662;2023-04-06T03:15:49;99304.84;;;3.59;100.00
56912;BME280;42800;53.928;27.662;2023-04-06T03:18:15;99291.75;;;3.52;100.00
56912;BME280;42800;53.928;27.662;2023-04-06T03:20:41;99281.13;;;3.65;100.00
56912;BME280;42800;53.928;27.662;2023-04-06T03:23:08;99290.00;;;3.48;100.00
56912;BME280;42800;53.928;27.662;2023-04-06T03:25:34;99273.16;;;3.68;100.00
56912;BME280;42800;53.928;27.662;2023-04-06T03:28:00;99265.63;;;3.65;100.00
56912;BME280;42800;53.928;27.662;2023-04-06T03:30:26;99274.59;;;3.74;100.00
56912;BME280;42800;53.928;27.662;2023-04-06T03:32:52;99270.13;;;3.70;100.00
56912;BME280;42800;53.928;27.662;2023-04-06T03:35:18;99274.06;;;3.55;100.00
56912;BME280;42800;53.928;27.662;2023-04-06T03:37:44;99280.66;;;3.71;100.00
56912;BME280;42800;53.928;27.662;2023-04-06T03:40:11;99274.53;;;3.48;100.00
56912;BME280;42800;53.928;27.662;2023-04-06T03:42:37;99266.91;;;3.50;100.00
56912;BME280;42800;53.928;27.662;2023-04-06T03:45:03;99255.63;;;3.74;100.00
56912;BME280;42800;53.928;27.662;2023-04-06T03:47:29;99263.25;;;3.64;100.00
56912;BME280;42800;53.928;27.662;2023-04-06T03:49:55;99261.31;;;3.47;100.00
56912;BME280;42800;53.928;27.662;2023-04-06T03:52:21;99257.81;;;3.55;100.00
56912;BME280;42800;53.928;27.662;2023-04-06T03:54:48;99257.00;;;3.54;100.00
56912;BME280;42800;53.928;27.662;2023-04-06T03:57:14;99253.84;;;3.61;100.00
56912;BME280;42800;53.928;27.662;2023-04-06T03:59:40;99251.94;;;3.70;100.00
56912;BME280;42800;53.928;27.662;2023-04-06T04:02:06;99273.47;;;3.67;100.00
56912;BME280;42800;53.928;27.662;2023-04-06T04:04:32;99269.59;;;3.59;100.00
56912;BME280;42800;53.928;27.662;2023-04-06T04:06:58;99251.31;;;4.08;100.00
56912;BME280;42800;53.928;27.662;2023-04-06T04:09:24;99268.06;;;4.01;100.00
56912;BME280;42800;53.928;27.662;2023-04-06T04:11:50;99282.13;;;3.95;100.00
56912;BME280;42800;53.928;27.662;2023-04-06T04:14:17;99274.13;;;4.16;100.00
56912;BME280;42800;53.928;27.662;2023-04-06T04:16:43;99293.13;;;3.98;100.00
56912;BME280;42800;53.928;27.662;2023-04-06T04:19:09;99291.69;;;3.84;100.00
56912;BME280;42800;53.928;27.662;2023-04-06T04:21:42;99290.44;;;4.07;100.00
56912;BME280;42800;53.928;27.662;2023-04-06T04:24:08;99301.91;;;3.87;100.00
56912;BME280;42800;53.928;27.662;2023-04-06T04:26:34;99298.06;;;3.96;100.00
56912;BME280;42800;53.928;27.662;2023-04-06T04:29:00;99296.31;;;3.92;100.00
56912;BME280;42800;53.928;27.662;2023-04-06T04:31:27;99283.53;;;3.92;100.00
56912;BME280;42800;53.928;27.662;2023-04-06T04:33:53;99285.00;;;4.24;100.00
56912;BME280;42800;53.928;27.662;2023-04-06T04:36:19;99293.47;;;4.14;100.00
56912;BME280;42800;53.928;27.662;2023-04-06T04:38:45;99284.84;;;4.21;100.00
56912;BME280;42800;53.928;27.662;2023-04-06T04:41:11;99304.16;;;4.19;100.00
56912;BME280;42800;53.928;27.662;2023-04-06T04:43:37;99296.97;;;4.15;100.00
56912;BME280;42800;53.928;27.662;2023-04-06T04:46:03;99303.03;;;4.29;100.00
56912;BME280;42800;53.928;27.662;2023-04-06T04:48:30;99305.91;;;4.33;100.00
56912;BME280;42800;53.928;27.662;2023-04-06T04:50:56;99323.63;;;4.39;100.00
56912;BME280;42800;53.928;27.662;2023-04-06T04:53:22;99335.78;;;4.41;100.00
56912;BME280;42800;53.928;27.662;2023-04-06T04:55:48;99336.09;;;4.40;100.00
56912;BME280;42800;53.928;27.662;2023-04-06T04:58:14;99345.34;;;4.39;100.00
56912;BME280;42800;53.928;27.662;2023-04-06T05:00:42;99346.31;;;4.34;100.00
56912;BME280;42800;53.928;27.662;2023-04-06T05:03:08;99347.91;;;4.44;100.00
56912;BME280;42800;53.928;27.662;2023-04-06T05:05:35;99351.72;;;4.69;100.00
56912;BME280;42800;53.928;27.662;2023-04-06T05:08:01;99355.53;;;4.94;100.00
56912;BME280;42800;53.928;27.662;2023-04-06T05:10:27;99396.94;;;4.91;100.00
56912;BME280;42800;53.928;27.662;2023-04-06T05:12:53;99411.56;;;5.25;100.00
56912;BME280;42800;53.928;27.662;2023-04-06T05:15:19;99450.28;;;5.30;100.00
56912;BME280;42800;53.928;27.662;2023-04-06T05:17:45;99479.38;;;5.12;100.00
56912;BME280;42800;53.928;27.662;2023-04-06T05:20:11;99502.72;;;5.22;100.00
56912;BME280;42800;53.928;27.662;2023-04-06T05:22:39;99511.50;;;5.36;100.00
56912;BME280;42800;53.928;27.662;2023-04-06T05:25:05;99534.06;;;5.37;100.00
56912;BME280;42800;53.928;27.662;2023-04-06T05:27:31;99542.34;;;5.49;100.00
56912;BME280;42800;53.928;27.662;2023-04-06T05:29:57;99564.44;;;5.30;100.00
56912;BME280;42800;53.928;27.662;2023-04-06T05:32:23;99595.47;;;5.38;100.00
56912;BME280;42800;53.928;27.662;2023-04-06T05:34:50;99614.94;;;5.92;100.00
56912;BME280;42800;53.928;27.662;2023-04-06T05:37:16;99657.06;;;5.77;100.00
56912;BME280;42800;53.928;27.662;2023-04-06T05:39:43;99675.78;;;5.79;100.00
56912;BME280;42800;53.928;27.662;2023-04-06T05:42:08;99684.41;;;5.55;100.00
56912;BME280;42800;53.928;27.662;2023-04-06T05:44:36;99674.84;;;6.01;100.00
56912;BME280;42800;53.928;27.662;2023-04-06T05:47:02;99692.78;;;5.93;100.00
56912;BME280;42800;53.928;27.662;2023-04-06T05:49:28;99691.97;;;6.10;100.00
56912;BME280;42800;53.928;27.662;2023-04-06T05:51:55;99708.47;;;6.13;100.00
56912;BME280;42800;53.928;27.662;2023-04-06T05:54:21;99730.22;;;5.96;100.00
56912;BME280;42800;53.928;27.662;2023-04-06T05:56:47;99728.16;;;6.28;100.00
56912;BME280;42800;53.928;27.662;2023-04-06T05:59:13;99734.69;;;6.35;100.00
56912;BME280;42800;53.928;27.662;2023-04-06T06:01:39;99750.53;;;6.42;100.00
56912;BME280;42800;53.928;27.662;2023-04-06T06:04:05;99748.28;;;6.62;100.00
56912;BME280;42800;53.928;27.662;2023-04-06T06:06:31;99751.97;;;6.57;100.00
56912;BME280;42800;53.928;27.662;2023-04-06T06:08:57;99754.97;;;6.73;100.00
56912;BME280;42800;53.928;27.662;2023-04-06T06:11:24;99746.78;;;6.73;100.00
56912;BME280;42800;53.928;27.662;2023-04-06T06:13:51;99747.75;;;6.77;100.00
56912;BME280;42800;53.928;27.662;2023-04-06T06:16:18;99746.34;;;7.09;100.00
56912;BME280;42800;53.928;27.662;2023-04-06T06:18:44;99733.41;;;6.42;100.00
56912;BME280;42800;53.928;27.662;2023-04-06T06:21:10;99746.56;;;6.31;100.00
56912;BME280;42800;53.928;27.662;2023-04-06T06:23:37;99750.88;;;6.32;100.00
56912;BME280;42800;53.928;27.662;2023-04-06T06:26:03;99757.63;;;6.43;100.00
56912;BME280;42800;53.928;27.662;2023-04-06T06:28:29;99761.09;;;6.61;100.00
56912;BME280;42800;53.928;27.662;2023-04-06T06:30:57;99764.47;;;6.58;100.00
56912;BME280;42800;53.928;27.662;2023-04-06T06:33:24;99757.19;;;6.88;100.00
56912;BME280;42800;53.928;27.662;2023-04-06T06:35:51;99769.94;;;7.05;100.00
56912;BME280;42800;53.928;27.662;2023-04-06T06:38:17;99756.88;;;6.81;100.00
56912;BME280;42800;53.928;27.662;2023-04-06T06:40:45;99750.31;;;6.82;100.00
56912;BME280;42800;53.928;27.662;2023-04-06T06:43:11;99742.47;;;7.19;100.00
56912;BME280;42800;53.928;27.662;2023-04-06T06:45:37;99723.59;;;7.85;100.00
56912;BME280;42800;53.928;27.662;2023-04-06T06:48:04;99673.81;;;7.67;100.00
56912;BME280;42800;53.928;27.662;2023-04-06T06:50:30;99611.91;;;8.13;100.00
56912;BME280;42800;53.928;27.662;2023-04-06T06:52:56;99504.59;;;8.13;100.00
56912;BME280;42800;53.928;27.662;2023-04-06T06:55:22;99462.78;;;7.63;100.00
56912;BME280;42800;53.928;27.662;2023-04-06T06:57:48;99463.69;;;7.67;100.00
56912;BME280;42800;53.928;27.662;2023-04-06T07:00:14;99524.13;;;7.03;100.00
56912;BME280;42800;53.928;27.662;2023-04-06T07:02:40;99581.03;;;7.67;100.00
56912;BME280;42800;53.928;27.662;2023-04-06T07:05:07;99595.47;;;7.68;100.00
56912;BME280;42800;53.928;27.662;2023-04-06T07:07:33;99572.75;;;7.76;100.00
56912;BME280;42800;53.928;27.662;2023-04-06T07:09:59;99563.22;;;7.82;100.00
56912;BME280;42800;53.928;27.662;2023-04-06T07:12:26;99551.25;;;7.41;100.00
56912;BME280;42800;53.928;27.662;2023-04-06T07:14:52;99573.56;;;7.76;100.00
56912;BME280;42800;53.928;27.662;2023-04-06T07:17:18;99571.94;;;7.96;100.00
56912;BME280;42800;53.928;27.662;2023-04-06T07:19:44;99532.22;;;7.99;100.00
56912;BME280;42800;53.928;27.662;2023-04-06T07:22:11;99557.34;;;7.59;100.00
56912;BME280;42800;53.928;27.662;2023-04-06T07:24:37;99585.56;;;7.63;100.00
56912;BME280;42800;53.928;27.662;2023-04-06T07:27:03;99525.78;;;8.53;100.00
56912;BME280;42800;53.928;27.662;2023-04-06T07:29:29;99434.94;;;8.56;100.00
56912;BME280;42800;53.928;27.662;2023-04-06T07:31:55;99363.78;;;8.52;100.00
56912;BME280;42800;53.928;27.662;2023-04-06T07:34:21;99250.03;;;8.60;100.00
56912;BME280;42800;53.928;27.662;2023-04-06T07:36:47;99174.31;;;8.60;100.00
56912;BME280;42800;53.928;27.662;2023-04-06T07:39:14;99140.50;;;9.16;100.00
56912;BME280;42800;53.928;27.662;2023-04-06T07:41:40;99119.91;;;9.22;100.00
56912;BME280;42800;53.928;27.662;2023-04-06T07:44:07;98882.94;;;9.79;100.00
56912;BME280;42800;53.928;27.662;2023-04-06T07:46:33;98771.19;;;9.35;100.00
56912;BME280;42800;53.928;27.662;2023-04-06T07:48:59;98648.56;;;10.01;100.00
56912;BME280;42800;53.928;27.662;2023-04-06T07:51:26;98636.00;;;9.97;100.00
56912;BME280;42800;53.928;27.662;2023-04-06T07:53:52;98683.25;;;9.90;100.00
56912;BME280;42800;53.928;27.662;2023-04-06T07:56:19;98633.03;;;9.49;100.00
56912;BME280;42800;53.928;27.662;2023-04-06T07:58:46;98569.41;;;9.89;100.00
56912;BME280;42800;53.928;27.662;2023-04-06T08:01:12;98486.41;;;10.70;100.00
56912;BME280;42800;53.928;27.662;2023-04-06T08:03:38;98494.50;;;10.56;100.00
56912;BME280;42800;53.928;27.662;2023-04-06T08:06:04;98440.00;;;11.13;100.00
56912;BME280;42800;53.928;27.662;2023-04-06T08:08:31;98413.81;;;11.37;100.00
56912;BME280;42800;53.928;27.662;2023-04-06T08:10:57;98338.13;;;11.29;100.00
56912;BME280;42800;53.928;27.662;2023-04-06T08:13:23;98355.75;;;11.17;100.00
56912;BME280;42800;53.928;27.662;2023-04-06T08:15:49;98363.25;;;11.49;100.00
56912;BME280;42800;53.928;27.662;2023-04-06T08:18:15;98395.84;;;9.97;100.00
56912;BME280;42800;53.928;27.662;2023-04-06T08:20:41;98528.22;;;10.19;100.00
56912;BME280;42800;53.928;27.662;2023-04-06T08:23:07;98509.66;;;10.39;100.00
56912;BME280;42800;53.928;27.662;2023-04-06T08:25:35;98449.72;;;10.30;100.00
56912;BME280;42800;53.928;27.662;2023-04-06T08:28:01;98462.00;;;10.51;100.00
56912;BME280;42800;53.928;27.662;2023-04-06T08:30:29;98458.22;;;10.73;100.00
56912;BME280;42800;53.928;27.662;2023-04-06T08:32:55;98399.56;;;10.96;100.00
56912;BME280;42800;53.928;27.662;2023-04-06T08:35:21;98390.22;;;11.15;100.00
56912;BME280;42800;53.928;27.662;2023-04-06T08:37:47;98382.09;;;11.58;100.00
56912;BME280;42800;53.928;27.662;2023-04-06T08:40:13;98372.28;;;11.74;100.00
56912;BME280;42800;53.928;27.662;2023-04-06T08:42:40;98340.38;;;10.84;100.00
56912;BME280;42800;53.928;27.662;2023-04-06T08:45:10;98347.56;;;11.49;100.00
56912;BME280;42800;53.928;27.662;2023-04-06T08:47:37;98320.53;;;11.91;100.00
56912;BME280;42800;53.928;27.662;2023-04-06T08:50:04;98315.81;;;11.70;100.00
56912;BME280;42800;53.928;27.662;2023-04-06T08:52:31;98320.53;;;11.98;100.00
56912;BME280;42800;53.928;27.662;2023-04-06T08:54:57;98351.50;;;11.81;100.00
56912;BME280;42800;53.928;27.662;2023-04-06T08:57:24;98309.50;;;12.12;100.00
56912;BME280;42800;53.928;27.662;2023-04-06T08:59:51;98289.69;;;12.67;100.00
56912;BME280;42800;53.928;27.662;2023-04-06T09:02:18;98279.25;;;12.19;100.00
56912;BME280;42800;53.928;27.662;2023-04-06T09:04:46;98275.50;;;12.80;100.00
56912;BME280;42800;53.928;27.662;2023-04-06T09:07:13;98285.38;;;12.70;100.00
56912;BME280;42800;53.928;27.662;2023-04-06T09:09:40;98290.91;;;12.56;100.00
56912;BME280;42800;53.928;27.662;2023-04-06T09:12:22;98286.75;;;11.76;100.00
56912;BME280;42800;53.928;27.662;2023-04-06T09:14:48;98289.53;;;12.01;100.00
56912;BME280;42800;53.928;27.662;2023-04-06T09:17:20;98286.66;;;12.44;100.00
56912;BME280;42800;53.928;27.662;2023-04-06T09:19:47;98288.38;;;11.88;100.00
56912;BME280;42800;53.928;27.662;2023-04-06T09:22:13;98291.63;;;12.78;100.00
56912;BME280;42800;53.928;27.662;2023-04-06T09:24:41;98292.25;;;12.05;100.00
56912;BME280;42800;53.928;27.662;2023-04-06T09:27:08;98285.38;;;12.70;100.00
56912;BME280;42800;53.928;27.662;2023-04-06T09:29:34;98286.28;;;12.35;100.00
56912;BME280;42800;53.928;27.662;2023-04-06T09:32:02;98271.72;;;12.45;100.00
56912;BME280;42800;53.928;27.662;2023-04-06T09:34:29;98290.19;;;12.44;100.00
56912;BME280;42800;53.928;27.662;2023-04-06T09:36:55;98272.66;;;12.94;100.00
56912;BME280;42800;53.928;27.662;2023-04-06T09:39:22;98267.31;;;12.65;100.00
56912;BME280;42800;53.928;27.662;2023-04-06T09:41:50;98268.34;;;12.89;100.00
56912;BME280;42800;53.928;27.662;2023-04-06T09:44:16;98265.09;;;13.64;100.00
56912;BME280;42800;53.928;27.662;2023-04-06T09:46:43;98277.72;;;14.38;100.00
56912;BME280;42800;53.928;27.662;2023-04-06T09:49:11;98310.69;;;13.13;100.00
56912;BME280;42800;53.928;27.662;2023-04-06T09:51:38;98269.38;;;13.69;100.00
56912;BME280;42800;53.928;27.662;2023-04-06T09:54:06;98275.53;;;13.84;100.00
56912;BME280;42800;53.928;27.662;2023-04-06T09:56:39;98284.72;;;13.70;100.00
56912;BME280;42800;53.928;27.662;2023-04-06T09:59:13;98291.47;;;14.07;100.00
56912;BME280;42800;53.928;27.662;2023-04-06T10:01:40;98333.75;;;13.89;100.00
56912;BME280;42800;53.928;27.662;2023-04-06T10:04:23;98315.22;;;13.41;100.00
56912;BME280;42800;53.928;27.662;2023-04-06T10:06:54;98252.47;;;13.67;100.00
56912;BME280;42800;53.928;27.662;2023-04-06T10:09:25;98270.09;;;14.15;100.00
56912;BME280;42800;53.928;27.662;2023-04-06T10:11:54;98294.91;;;14.49;100.00
56912;BME280;42800;53.928;27.662;2023-04-06T10:14:20;98308.34;;;14.50;100.00
56912;BME280;42800;53.928;27.662;2023-04-06T10:16:48;98294.13;;;14.14;100.00
56912;BME280;42800;53.928;27.662;2023-04-06T10:19:21;98265.69;;;13.86;100.00
56912;BME280;42800;53.928;27.662;2023-04-06T10:21:54;98221.00;;;14.02;100.00
56912;BME280;42800;53.928;27.662;2023-04-06T10:24:21;98238.78;;;14.32;100.00
56912;BME280;42800;53.928;27.662;2023-04-06T10:26:57;98247.97;;;14.87;100.00
56912;BME280;42800;53.928;27.662;2023-04-06T10:29:23;98318.38;;;14.98;100.00
56912;BME280;42800;53.928;27.662;2023-04-06T10:31:49;98321.78;;;14.79;100.00
56912;BME280;42800;53.928;27.662;2023-04-06T10:34:15;98272.59;;;14.74;100.00
56912;BME280;42800;53.928;27.662;2023-04-06T10:36:41;98277.81;;;15.22;100.00
56912;BME280;42800;53.928;27.662;2023-04-06T10:39:07;98269.63;;;14.88;100.00
56912;BME280;42800;53.928;27.662;2023-04-06T10:41:34;98288.47;;;14.28;100.00
56912;BME280;42800;53.928;27.662;2023-04-06T10:44:01;98302.28;;;14.25;100.00
56912;BME280;42800;53.928;27.662;2023-04-06T10:46:29;98273.19;;;14.20;100.00
56912;BME280;42800;53.928;27.662;2023-04-06T10:48:55;98270.09;;;14.52;100.00
56912;BME280;42800;53.928;27.662;2023-04-06T10:51:25;98270.06;;;15.14;100.00
56912;BME280;42800;53.928;27.662;2023-04-06T10:53:53;98321.91;;;15.29;100.00
56912;BME280;42800;53.928;27.662;2023-04-06T10:56:22;98283.94;;;14.45;100.00
56912;BME280;42800;53.928;27.662;2023-04-06T10:58:52;98272.66;;;14.97;100.00
56912;BME280;42800;53.928;27.662;2023-04-06T11:01:19;98266.50;;;14.86;100.00
56912;BME280;42800;53.928;27.662;2023-04-06T11:03:45;98236.28;;;14.45;100.00
56912;BME280;42800;53.928;27.662;2023-04-06T11:06:18;98215.41;;;14.44;100.00
56912;BME280;42800;53.928;27.662;2023-04-06T11:08:44;98245.78;;;14.06;100.00
56912;BME280;42800;53.928;27.662;2023-04-06T11:11:11;98219.16;;;13.92;100.00
56912;BME280;42800;53.928;27.662;2023-04-06T11:13:41;98191.88;;;14.05;100.00
56912;BME280;42800;53.928;27.662;2023-04-06T11:16:13;98185.47;;;13.77;100.00
56912;BME280;42800;53.928;27.662;2023-04-06T11:18:47;98174.63;;;13.97;100.00
56912;BME280;42800;53.928;27.662;2023-04-06T11:21:13;98178.06;;;13.71;100.00
56912;BME280;42800;53.928;27.662;2023-04-06T11:23:39;98173.09;;;13.58;100.00
56912;BME280;42800;53.928;27.662;2023-04-06T11:26:10;98172.47;;;12.91;100.00
56912;BME280;42800;53.928;27.662;2023-04-06T11:28:36;98200.34;;;12.97;100.00
56912;BME280;42800;53.928;27.662;2023-04-06T11:31:02;98204.66;;;12.94;100.00
56912;BME280;42800;53.928;27.662;2023-04-06T11:33:35;98220.53;;;12.69;100.00
56912;BME280;42800;53.928;27.662;2023-04-06T11:36:01;98259.91;;;12.55;100.00
56912;BME280;42800;53.928;27.662;2023-04-06T11:38:27;98319.25;;;12.38;100.00
56912;BME280;42800;53.928;27.662;2023-04-06T11:40:53;98293.28;;;12.54;100.00
56912;BME280;42800;53.928;27.662;2023-04-06T11:43:26;98283.81;;;12.65;100.00
56912;BME280;42800;53.928;27.662;2023-04-06T11:45:59;98290.63;;;13.09;100.00
56912;BME280;42800;53.928;27.662;2023-04-06T11:48:25;98254.34;;;12.69;100.00
56912;BME280;42800;53.928;27.662;2023-04-06T11:50:56;98275.56;;;12.65;100.00
56912;BME280;42800;53.928;27.662;2023-04-06T11:53:22;98266.59;;;12.51;100.00
56912;BME280;42800;53.928;27.662;2023-04-06T11:55:48;98271.59;;;12.74;100.00
56912;BME280;42800;53.928;27.662;2023-04-06T11:58:14;98235.53;;;12.57;100.00
56912;BME280;42800;53.928;27.662;2023-04-06T12:00:40;98245.03;;;13.08;100.00
56912;BME280;42800;53.928;27.662;2023-04-06T12:03:10;98224.03;;;12.80;100.00
56912;BME280;42800;53.928;27.662;2023-04-06T12:05:36;98236.19;;;12.79;100.00
56912;BME280;42800;53.928;27.662;2023-04-06T12:08:03;98252.25;;;12.88;100.00
56912;BME280;42800;53.928;27.662;2023-04-06T12:10:29;98258.19;;;12.79;100.00
56912;BME280;42800;53.928;27.662;2023-04-06T12:12:55;98247.72;;;12.60;100.00
56912;BME280;42800;53.928;27.662;2023-04-06T12:15:21;98263.41;;;12.59;100.00
56912;BME280;42800;53.928;27.662;2023-04-06T12:17:47;98301.50;;;12.64;100.00
56912;BME280;42800;53.928;27.662;2023-04-06T12:20:13;98252.66;;;12.83;100.00
56912;BME280;42800;53.928;27.662;2023-04-06T12:22:39;98249.13;;;12.86;100.00
56912;BME280;42800;53.928;27.662;2023-04-06T12:25:06;98231.78;;;12.92;100.00
56912;BME280;42800;53.928;27.662;2023-04-06T12:27:32;98284.59;;;12.66;100.00
56912;BME280;42800;53.928;27.662;2023-04-06T12:29:58;98303.88;;;12.55;100.00
56912;BME280;42800;53.928;27.662;2023-04-06T12:32:24;98317.09;;;12.89;100.00
56912;BME280;42800;53.928;27.662;2023-04-06T12:34:51;98261.75;;;12.80;100.00
56912;BME280;42800;53.928;27.662;2023-04-06T12:37:17;98281.75;;;12.87;100.00
56912;BME280;42800;53.928;27.662;2023-04-06T12:39:43;98286.41;;;12.98;100.00
56912;BME280;42800;53.928;27.662;2023-04-06T12:42:10;98275.59;;;13.28;100.00